Sylvan, Pennsylvania
Current Conditions -  °F | °C
As of 3:53 PM on Tuesday 27 Jan 2015 (Local Time) from KHGR Reporting Station
Light Snow Light Snow  
Wind Chill: 19°   Ceiling: 2300
Heat Index: 30°   Visibility: 5mi
Dew Point: 21°   Wind: 15mph
Humidity: 69%   Direction: 320°NW
Pressure: 29.84"   Gusts: NA
Location:  39.8035°N, 77.9346°W
Report Text: KHGR 272053Z 32013KT 5SM -SN OVC023 M01/M06 A2984 RMK AO2 SNB1958E31B48 SLP123 P0000 60000 T10111061 53012
Loading
Personal Weather Stations






























Interactive Weather Map New forecast layout! Learn more

10-Day Weather Forecast

Advertisements
Track Severe Weather on mobile